Willow Lake, SD

18:50 CDT le 24 octobre 2014 (GMT -0500)
Iroquois SD | Change Station
CLOSE
Current Station
Stations météorologiques personnelles
Location: Iroquois, SD
Altitude: 1427 ft
Stations météo à proximité

Alt. 1427 ft 44.45 °N, 97.86 °W | Updated 9 minutes ago

Ciel dégagé
Ciel dégagé
66.0 ° F
Paraît 66.0 ° F
N
2.7
Vent Variable Vent de NNE

Aujourd'hui
Haut(e) -- | Bas -- ° F
--% Risque de précip.
Hier
Haut(e) -- | Bas -- ° F
Precip. -- pouce
7:57 AM 6:31 PM
Nouvelle lune, 1% visible
Pression 29.91 pouce
Visibilité 10.0 Miles terrestres
Nuages Ciel dégagé
Point de rosée 41 ° F
Humidité 40%
Précipitations 0.00 pouce
Profondeur de la couche neigeuse Non disponible.
UV 0 sur 12
Pollen 1.60 sur 12
Qualité de l'air Non disponible.
Flu Activity Sporadic
METAR KHON 242255Z AUTO 30005KT 10SM CLR 24/03 A2990 RMK AO2 SLP127 T02390028

More Conditions Fewer Conditions

Pression 29.91 pouce
Visibilité 10.0 Miles terrestres
Nuages Ciel dégagé
Point de rosée 41 ° F
Humidité 40%
Précipitations 0.00 pouce
Profondeur de la couche neigeuse Non disponible.
UV 0 sur 12
Pollen 1.60 sur 12
Qualité de l'air Non disponible.
Flu Activity Sporadic
METAR KHON 242255Z AUTO 30005KT 10SM CLR 24/03 A2990 RMK AO2 SLP127 T02390028

More Conditions Fewer Conditions

10-Day Weather Forecast

Almanac

Astronomie

Oct. 24, 2014 Lever Coucher
Temps réel 07:57 CDT 18:31 CDT
Crépuscule civil 07:28 CDT 19:01 CDT
Crépuscule nautique 06:54 CDT 19:35 CDT
Crépuscule astronomique 06:20 CDT 20:09 CDT
Lune 08:39 CDT 19:10 CDT
Durée de lumière visible 11h 33m
Longueur du jour
10h 33m
Tomorrow will be 2m 53s shorter.
Nouvelle lune, 1% of the Moon is Illuminated
Aujourd'hui
Nouvelle lune
Oct 30
Premier quartier
Nov 6
Pleine lune
Nov 14
Dernier quartier
Nov 22
Nouveau

Extrêmes aujourd'hui

State Highs State Lows

Community

WunderPhotos

Upload Photos

1,764,713 Photos téléchargées !

Nearby

Épaisseur de neige

Station Depth Altitude
North Rapid Creek 0 in 6130 ft
Blind Park 0 in 6890 ft

Activité sismique

Ville Distance Mag. Time & Date
No recent earthquake activity has been reported nearby.
Minimum magnitude displayed is 2.5.

Températures des eaux côtières

Lieu Température
Aucun rapport de station

Stations météo à proximité